createdAt,value
2023-02-03T00:03:40.731Z,93.47
2023-02-03T00:08:42.692Z,92.75
2023-02-03T00:13:44.371Z,92.25
2023-02-03T00:18:46.126Z,91.87
2023-02-03T00:23:47.809Z,91.39
2023-02-03T00:28:49.536Z,90.93
2023-02-03T00:33:56.259Z,91.29
2023-02-03T00:38:58.004Z,91.70
2023-02-03T00:44:01.157Z,92.29
2023-02-03T00:49:04.717Z,92.68
2023-02-03T00:54:06.466Z,93.14
2023-02-03T00:59:08.468Z,93.39
2023-02-03T01:04:10.117Z,94.06
2023-02-03T01:09:11.798Z,93.47
2023-02-03T01:14:13.488Z,93.92
2023-02-03T01:19:15.222Z,94.01
2023-02-03T01:24:17.303Z,94.28
2023-02-03T01:29:19.701Z,94.22
2023-02-03T01:34:21.400Z,94.63
2023-02-03T01:39:23.073Z,93.99
2023-02-03T01:44:49.376Z,93.77
2023-02-03T01:50:27.611Z,93.90
2023-02-03T01:55:44.206Z,93.65
2023-02-03T02:00:47.582Z,93.81
2023-02-03T02:05:56.633Z,93.82
2023-02-03T02:11:02.553Z,93.80
2023-02-03T02:16:18.141Z,93.99
2023-02-03T02:21:29.869Z,93.29
2023-02-03T02:26:50.617Z,93.03
2023-02-03T02:31:58.300Z,92.40
2023-02-03T02:37:25.739Z,92.08
2023-02-03T02:42:42.765Z,91.97
2023-02-03T02:47:45.240Z,92.30
2023-02-03T02:52:49.932Z,91.64
2023-02-03T02:57:56.403Z,91.62
2023-02-03T03:03:07.525Z,91.31
2023-02-03T03:08:12.393Z,91.02
2023-02-03T03:13:20.608Z,90.82
2023-02-03T03:18:38.920Z,90.27
2023-02-03T03:23:44.966Z,90.01
2023-02-03T03:28:55.646Z,89.50
2023-02-03T03:33:57.481Z,89.49
2023-02-03T03:39:09.583Z,89.29
2023-02-03T03:44:15.125Z,88.72
2023-02-03T03:49:20.399Z,87.92
2023-02-03T03:54:25.188Z,88.08
2023-02-03T03:59:32.914Z,88.03
2023-02-03T04:04:37.703Z,87.88
2023-02-03T04:09:40.585Z,87.43
2023-02-03T04:14:42.351Z,87.12
2023-02-03T04:19:44.094Z,87.59
2023-02-03T04:24:45.892Z,87.61
2023-02-03T04:29:47.697Z,87.04
2023-02-03T04:34:49.760Z,87.12
2023-02-03T04:39:52.240Z,87.35
2023-02-03T04:44:53.948Z,86.76
2023-02-03T04:49:55.612Z,86.74
2023-02-03T04:54:57.335Z,86.82
2023-02-03T04:59:59.051Z,86.25
2023-02-03T05:05:00.685Z,86.66
2023-02-03T05:10:02.359Z,86.18
2023-02-03T05:15:04.780Z,85.97
2023-02-03T05:20:07.390Z,86.05
2023-02-03T05:25:09.486Z,85.93
2023-02-03T05:30:11.980Z,86.32
2023-02-03T05:35:13.824Z,86.23
2023-02-03T05:40:34.336Z,86.46
2023-02-03T05:45:36.082Z,86.63
2023-02-03T05:50:38.766Z,85.80
2023-02-03T05:55:43.662Z,86.05
2023-02-03T06:00:45.529Z,85.97
2023-02-03T06:05:47.647Z,86.11
2023-02-03T06:10:49.308Z,85.80
2023-02-03T06:15:50.922Z,85.53
2023-02-03T06:20:52.845Z,84.63
2023-02-03T06:25:54.546Z,84.84
2023-02-03T06:30:56.344Z,84.42
2023-02-03T06:35:58.389Z,85.02
2023-02-03T06:41:00.093Z,85.26
2023-02-03T06:46:01.841Z,86.41
2023-02-03T06:51:04.228Z,86.05
2023-02-03T06:56:06.153Z,85.78
2023-02-03T07:01:07.852Z,85.24
2023-02-03T07:06:09.510Z,85.07
2023-02-03T07:11:11.188Z,84.79
2023-02-03T07:16:13.735Z,84.23
2023-02-03T07:21:16.282Z,83.61
2023-02-03T07:26:18.916Z,83.09
2023-02-03T07:31:21.142Z,83.17
2023-02-03T07:36:24.222Z,83.39
2023-02-03T07:41:25.887Z,82.42
2023-02-03T07:46:27.836Z,82.91
2023-02-03T07:51:29.716Z,82.70
2023-02-03T07:56:32.705Z,82.75
2023-02-03T08:01:34.957Z,83.44
2023-02-03T08:06:36.683Z,82.90
2023-02-03T08:11:38.756Z,82.44
2023-02-03T08:16:40.614Z,82.27
2023-02-03T08:21:42.299Z,82.21
2023-02-03T08:26:44.542Z,82.48
2023-02-03T08:31:46.291Z,81.92
2023-02-03T08:36:48.243Z,81.94
2023-02-03T08:41:49.966Z,81.52
2023-02-03T08:46:52.970Z,81.26
2023-02-03T08:51:55.670Z,81.27
2023-02-03T08:56:57.374Z,81.14
2023-02-03T09:01:59.931Z,81.33
2023-02-03T09:07:04.258Z,81.63
2023-02-03T09:12:07.401Z,81.46
2023-02-03T09:17:09.847Z,82.19
2023-02-03T09:22:11.779Z,83.12
2023-02-03T09:27:13.739Z,83.12
2023-02-03T09:32:15.909Z,83.06
2023-02-03T09:37:17.940Z,82.74
2023-02-03T09:42:34.850Z,82.73
2023-02-03T09:47:40.914Z,83.27
2023-02-03T09:52:44.255Z,82.81
2023-02-03T09:57:51.544Z,82.09
2023-02-03T10:02:59.994Z,81.68
2023-02-03T10:08:35.118Z,81.39
2023-02-03T10:13:48.367Z,81.76
2023-02-03T10:18:53.928Z,82.46
2023-02-03T10:23:58.372Z,82.83
2023-02-03T10:29:16.486Z,82.06
2023-02-03T10:34:19.828Z,82.30
2023-02-03T10:39:44.176Z,82.95
2023-02-03T10:44:54.058Z,83.15
2023-02-03T10:49:57.906Z,83.25
2023-02-03T10:55:04.552Z,83.32
2023-02-03T11:00:22.643Z,83.34
2023-02-03T11:05:27.437Z,84.07
2023-02-03T11:10:29.398Z,82.66
2023-02-03T11:15:31.306Z,82.47
2023-02-03T11:20:36.722Z,82.04
2023-02-03T11:25:38.734Z,82.12
2023-02-03T11:30:40.593Z,82.25
2023-02-03T11:35:55.711Z,82.41
2023-02-03T11:41:01.299Z,81.11
2023-02-03T11:46:07.789Z,81.38
2023-02-03T11:51:15.694Z,82.53
2023-02-03T11:56:55.353Z,82.01
2023-02-03T12:02:18.935Z,81.66
2023-02-03T12:07:31.882Z,80.83
2023-02-03T12:12:57.625Z,80.23
2023-02-03T12:18:36.759Z,79.85
2023-02-03T12:24:13.996Z,79.19
2023-02-03T12:29:22.007Z,78.95
2023-02-03T12:34:32.122Z,78.95
2023-02-03T12:39:40.355Z,78.45
2023-02-03T12:44:52.203Z,78.22
2023-02-03T12:49:59.483Z,77.98
2023-02-03T12:55:13.164Z,77.92
2023-02-03T13:00:19.744Z,78.09
2023-02-03T13:05:29.779Z,77.35
2023-02-03T13:10:48.777Z,77.29
2023-02-03T13:15:52.999Z,76.57
2023-02-03T13:20:55.295Z,76.53
2023-02-03T13:26:18.883Z,76.73
2023-02-03T13:31:54.960Z,76.20
2023-02-03T13:37:41.108Z,76.63
2023-02-03T13:42:55.587Z,76.18
2023-02-03T13:48:28.805Z,75.44
2023-02-03T13:53:36.380Z,76.11
2023-02-03T13:58:39.342Z,76.37
2023-02-03T14:03:42.943Z,77.60
2023-02-03T14:08:52.432Z,77.71
2023-02-03T14:14:20.717Z,78.13
2023-02-03T14:19:22.377Z,77.79
2023-02-03T14:24:31.391Z,77.46
2023-02-03T14:29:35.573Z,77.44
2023-02-03T14:34:43.386Z,77.08
2023-02-03T14:40:15.110Z,77.00
2023-02-03T14:45:30.371Z,76.66
2023-02-03T14:50:46.733Z,75.73
2023-02-03T14:56:11.010Z,75.73
2023-02-03T15:01:37.761Z,75.57
2023-02-03T15:06:45.323Z,75.16
2023-02-03T15:11:47.905Z,75.23
2023-02-03T15:16:58.894Z,75.75
2023-02-03T15:22:01.736Z,76.13
2023-02-03T15:27:03.566Z,76.71
2023-02-03T15:32:11.744Z,76.92
2023-02-03T15:37:21.488Z,77.25
2023-02-03T15:42:32.161Z,78.37
2023-02-03T15:47:38.646Z,78.38
2023-02-03T15:52:42.133Z,79.01
2023-02-03T15:57:47.658Z,79.42
2023-02-03T16:02:49.864Z,80.25
2023-02-03T16:07:52.418Z,81.31
2023-02-03T16:12:54.586Z,82.59
2023-02-03T16:17:59.612Z,82.88
2023-02-03T16:23:03.294Z,84.14
2023-02-03T16:28:34.244Z,85.55
2023-02-03T16:33:55.318Z,86.81
2023-02-03T16:39:17.192Z,87.95
2023-02-03T16:44:37.612Z,89.45
2023-02-03T16:49:57.886Z,90.27
2023-02-03T16:54:59.660Z,90.61
2023-02-03T17:00:01.404Z,90.97
2023-02-03T17:05:03.362Z,90.83
2023-02-03T17:10:05.376Z,91.12
2023-02-03T17:15:08.580Z,90.83
2023-02-03T17:20:10.703Z,90.77
2023-02-03T17:25:12.482Z,90.72
2023-02-03T17:30:14.655Z,91.31
2023-02-03T17:35:16.484Z,91.54
2023-02-03T17:56:26.679Z,93.24
2023-02-03T18:01:28.730Z,93.97
2023-02-03T18:06:35.113Z,94.02
2023-02-03T18:11:37.900Z,94.49
2023-02-03T18:16:40.174Z,95.10
2023-02-03T18:21:43.474Z,95.00
2023-02-03T18:26:47.242Z,95.06
2023-02-03T18:31:48.918Z,95.36
2023-02-03T18:36:50.721Z,95.41
2023-02-03T18:41:52.621Z,95.49
2023-02-03T18:46:54.813Z,95.17
2023-02-03T18:51:57.016Z,96.20
2023-02-03T18:56:59.062Z,96.42
2023-02-03T19:02:01.243Z,96.50
2023-02-03T19:07:03.054Z,96.29
2023-02-03T19:12:05.944Z,95.77
2023-02-03T19:17:08.398Z,95.41
2023-02-03T19:22:11.898Z,95.43
2023-02-03T19:27:13.608Z,95.64
2023-02-03T19:32:15.396Z,95.79
2023-02-03T19:37:17.122Z,95.52
2023-02-03T19:42:18.989Z,95.62
2023-02-03T19:47:21.169Z,95.62
2023-02-03T19:52:23.055Z,95.03
2023-02-03T19:57:24.846Z,95.75
2023-02-03T20:02:27.287Z,96.22
2023-02-03T20:07:32.485Z,95.91
2023-02-03T20:12:34.227Z,95.76
2023-02-03T20:17:36.073Z,96.55
2023-02-03T20:22:37.803Z,96.05
2023-02-03T20:27:39.586Z,96.12
2023-02-03T20:32:41.279Z,96.65
2023-02-03T20:37:43.497Z,97.21
2023-02-03T20:42:45.263Z,97.82
2023-02-03T20:47:47.670Z,98.83
2023-02-03T20:52:52.176Z,99.58
2023-02-03T20:57:56.784Z,99.74
2023-02-03T21:03:17.030Z,99.65
2023-02-03T21:08:20.327Z,99.86
2023-02-03T21:13:25.759Z,99.67
2023-02-03T21:18:47.143Z,99.54
2023-02-03T21:23:49.119Z,99.73
2023-02-03T21:28:56.234Z,100.00
2023-02-03T21:34:00.146Z,100.00
2023-02-03T21:39:02.176Z,100.00
2023-02-03T21:44:33.739Z,100.00
2023-02-03T21:49:35.616Z,100.00
2023-02-03T21:54:41.821Z,100.00
2023-02-03T21:59:46.914Z,100.00
2023-02-03T22:04:48.608Z,100.00
2023-02-03T22:09:51.541Z,100.00
2023-02-03T22:14:53.111Z,100.00
2023-02-03T22:19:54.716Z,100.00
2023-02-03T22:24:56.396Z,100.00
2023-02-03T22:29:58.360Z,100.00
2023-02-03T22:34:59.991Z,100.00
2023-02-03T22:40:03.427Z,100.00
2023-02-03T22:45:06.409Z,100.00
2023-02-03T22:50:09.189Z,100.00
2023-02-03T22:55:10.920Z,100.00
2023-02-03T23:00:18.062Z,100.00
2023-02-03T23:05:20.661Z,100.00
2023-02-03T23:10:25.400Z,100.00
2023-02-03T23:15:28.042Z,100.00
2023-02-03T23:20:30.211Z,92.67
2023-02-03T23:25:32.084Z,90.88
2023-02-03T23:30:34.143Z,90.38
2023-02-03T23:35:49.287Z,87.38
2023-02-03T23:40:51.304Z,88.06
2023-02-03T23:45:53.082Z,85.08
2023-02-03T23:50:54.746Z,83.15
2023-02-03T23:55:56.443Z,82.84
